sensor_id;sensor_type;location;lat;lon;timestamp;P1;durP1;ratioP1;P2;durP2;ratioP2
13269;SDS011;6703;51.994;7.570;2023-02-05T00:00:15;19.30;;;9.73;;
13269;SDS011;6703;51.994;7.570;2023-02-05T00:02:44;19.65;;;9.95;;
13269;SDS011;6703;51.994;7.570;2023-02-05T00:05:12;21.55;;;10.35;;
13269;SDS011;6703;51.994;7.570;2023-02-05T00:07:40;22.65;;;10.35;;
13269;SDS011;6703;51.994;7.570;2023-02-05T00:10:08;20.20;;;10.40;;
13269;SDS011;6703;51.994;7.570;2023-02-05T00:12:36;25.00;;;10.43;;
13269;SDS011;6703;51.994;7.570;2023-02-05T00:15:05;20.13;;;9.40;;
13269;SDS011;6703;51.994;7.570;2023-02-05T00:17:33;18.77;;;9.85;;
13269;SDS011;6703;51.994;7.570;2023-02-05T00:20:03;17.85;;;9.55;;
13269;SDS011;6703;51.994;7.570;2023-02-05T00:22:31;22.55;;;11.82;;
13269;SDS011;6703;51.994;7.570;2023-02-05T00:24:59;24.38;;;11.57;;
13269;SDS011;6703;51.994;7.570;2023-02-05T00:27:27;23.77;;;11.18;;
13269;SDS011;6703;51.994;7.570;2023-02-05T00:29:55;23.67;;;10.88;;
13269;SDS011;6703;51.994;7.570;2023-02-05T00:32:22;21.53;;;11.17;;
13269;SDS011;6703;51.994;7.570;2023-02-05T00:34:50;21.60;;;11.30;;
13269;SDS011;6703;51.994;7.570;2023-02-05T00:37:19;22.70;;;10.85;;
13269;SDS011;6703;51.994;7.570;2023-02-05T00:39:47;29.92;;;11.80;;
13269;SDS011;6703;51.994;7.570;2023-02-05T00:42:15;24.20;;;11.48;;
13269;SDS011;6703;51.994;7.570;2023-02-05T00:44:43;22.52;;;11.45;;
13269;SDS011;6703;51.994;7.570;2023-02-05T00:47:10;24.25;;;11.50;;
13269;SDS011;6703;51.994;7.570;2023-02-05T00:49:38;22.02;;;10.90;;
13269;SDS011;6703;51.994;7.570;2023-02-05T00:52:06;23.67;;;11.03;;
13269;SDS011;6703;51.994;7.570;2023-02-05T00:54:35;24.05;;;11.10;;
13269;SDS011;6703;51.994;7.570;2023-02-05T00:57:06;22.98;;;11.18;;
13269;SDS011;6703;51.994;7.570;2023-02-05T00:59:34;26.35;;;11.13;;
13269;SDS011;6703;51.994;7.570;2023-02-05T01:02:02;21.63;;;11.38;;
13269;SDS011;6703;51.994;7.570;2023-02-05T01:04:30;20.25;;;10.82;;
13269;SDS011;6703;51.994;7.570;2023-02-05T01:06:58;22.67;;;11.18;;
13269;SDS011;6703;51.994;7.570;2023-02-05T01:09:26;23.30;;;11.17;;
13269;SDS011;6703;51.994;7.570;2023-02-05T01:11:55;20.83;;;10.68;;
13269;SDS011;6703;51.994;7.570;2023-02-05T01:14:23;25.17;;;10.88;;
13269;SDS011;6703;51.994;7.570;2023-02-05T01:16:51;21.50;;;9.88;;
13269;SDS011;6703;51.994;7.570;2023-02-05T01:19:18;23.80;;;9.90;;
13269;SDS011;6703;51.994;7.570;2023-02-05T01:21:46;20.52;;;10.00;;
13269;SDS011;6703;51.994;7.570;2023-02-05T01:24:14;20.85;;;10.38;;
13269;SDS011;6703;51.994;7.570;2023-02-05T01:26:41;20.15;;;10.02;;
13269;SDS011;6703;51.994;7.570;2023-02-05T01:29:11;19.70;;;10.35;;
13269;SDS011;6703;51.994;7.570;2023-02-05T01:31:38;24.52;;;10.43;;
13269;SDS011;6703;51.994;7.570;2023-02-05T01:34:06;21.65;;;10.10;;
13269;SDS011;6703;51.994;7.570;2023-02-05T01:36:55;24.92;;;10.27;;
13269;SDS011;6703;51.994;7.570;2023-02-05T01:39:23;19.70;;;9.55;;
13269;SDS011;6703;51.994;7.570;2023-02-05T01:41:50;22.17;;;9.67;;
13269;SDS011;6703;51.994;7.570;2023-02-05T01:44:20;19.33;;;8.90;;
13269;SDS011;6703;51.994;7.570;2023-02-05T01:46:50;18.95;;;9.43;;
13269;SDS011;6703;51.994;7.570;2023-02-05T01:49:20;21.05;;;9.68;;
13269;SDS011;6703;51.994;7.570;2023-02-05T01:51:50;22.25;;;10.13;;
13269;SDS011;6703;51.994;7.570;2023-02-05T01:54:20;20.85;;;9.85;;
13269;SDS011;6703;51.994;7.570;2023-02-05T01:56:50;18.40;;;9.23;;
13269;SDS011;6703;51.994;7.570;2023-02-05T01:59:22;19.27;;;9.02;;
13269;SDS011;6703;51.994;7.570;2023-02-05T02:01:52;20.05;;;9.45;;
13269;SDS011;6703;51.994;7.570;2023-02-05T02:04:25;15.63;;;8.80;;
13269;SDS011;6703;51.994;7.570;2023-02-05T02:06:59;19.20;;;9.85;;
13269;SDS011;6703;51.994;7.570;2023-02-05T02:09:27;19.60;;;9.68;;
13269;SDS011;6703;51.994;7.570;2023-02-05T02:11:55;20.73;;;9.52;;
13269;SDS011;6703;51.994;7.570;2023-02-05T02:14:25;16.37;;;8.90;;
13269;SDS011;6703;51.994;7.570;2023-02-05T02:16:55;21.13;;;9.43;;
13269;SDS011;6703;51.994;7.570;2023-02-05T02:19:25;20.50;;;9.20;;
13269;SDS011;6703;51.994;7.570;2023-02-05T02:22:05;21.70;;;9.45;;
13269;SDS011;6703;51.994;7.570;2023-02-05T02:24:46;23.90;;;9.38;;
13269;SDS011;6703;51.994;7.570;2023-02-05T02:27:36;20.50;;;9.25;;
13269;SDS011;6703;51.994;7.570;2023-02-05T02:30:07;23.03;;;9.03;;
13269;SDS011;6703;51.994;7.570;2023-02-05T02:32:38;18.70;;;8.88;;
13269;SDS011;6703;51.994;7.570;2023-02-05T02:35:09;22.00;;;9.73;;
13269;SDS011;6703;51.994;7.570;2023-02-05T02:37:39;20.67;;;9.02;;
13269;SDS011;6703;51.994;7.570;2023-02-05T02:40:15;19.70;;;8.80;;
13269;SDS011;6703;51.994;7.570;2023-02-05T02:42:57;19.30;;;9.27;;
13269;SDS011;6703;51.994;7.570;2023-02-05T02:45:29;20.33;;;9.85;;
13269;SDS011;6703;51.994;7.570;2023-02-05T02:47:59;18.67;;;9.80;;
13269;SDS011;6703;51.994;7.570;2023-02-05T02:50:28;22.13;;;9.52;;
13269;SDS011;6703;51.994;7.570;2023-02-05T02:53:00;24.52;;;9.82;;
13269;SDS011;6703;51.994;7.570;2023-02-05T02:55:30;22.65;;;9.60;;
13269;SDS011;6703;51.994;7.570;2023-02-05T02:58:03;19.58;;;9.30;;
13269;SDS011;6703;51.994;7.570;2023-02-05T03:00:31;20.98;;;9.57;;
13269;SDS011;6703;51.994;7.570;2023-02-05T03:03:01;22.35;;;10.00;;
13269;SDS011;6703;51.994;7.570;2023-02-05T03:05:31;18.98;;;9.35;;
13269;SDS011;6703;51.994;7.570;2023-02-05T03:08:02;20.95;;;9.68;;
13269;SDS011;6703;51.994;7.570;2023-02-05T03:10:34;16.50;;;8.95;;
13269;SDS011;6703;51.994;7.570;2023-02-05T03:13:05;25.97;;;9.93;;
13269;SDS011;6703;51.994;7.570;2023-02-05T03:15:33;22.90;;;10.67;;
13269;SDS011;6703;51.994;7.570;2023-02-05T03:18:01;24.55;;;10.48;;
13269;SDS011;6703;51.994;7.570;2023-02-05T03:20:30;21.80;;;10.27;;
13269;SDS011;6703;51.994;7.570;2023-02-05T03:23:00;20.27;;;10.40;;
13269;SDS011;6703;51.994;7.570;2023-02-05T03:25:27;24.05;;;10.25;;
13269;SDS011;6703;51.994;7.570;2023-02-05T03:27:56;22.93;;;10.57;;
13269;SDS011;6703;51.994;7.570;2023-02-05T03:30:26;22.13;;;10.45;;
13269;SDS011;6703;51.994;7.570;2023-02-05T03:32:58;21.20;;;10.63;;
13269;SDS011;6703;51.994;7.570;2023-02-05T03:35:32;19.70;;;10.57;;
13269;SDS011;6703;51.994;7.570;2023-02-05T03:38:05;24.00;;;10.32;;
13269;SDS011;6703;51.994;7.570;2023-02-05T03:40:42;22.90;;;10.77;;
13269;SDS011;6703;51.994;7.570;2023-02-05T03:43:15;23.95;;;10.32;;
13269;SDS011;6703;51.994;7.570;2023-02-05T03:45:49;21.77;;;11.27;;
13269;SDS011;6703;51.994;7.570;2023-02-05T03:48:27;22.45;;;10.65;;
13269;SDS011;6703;51.994;7.570;2023-02-05T03:51:08;28.47;;;11.53;;
13269;SDS011;6703;51.994;7.570;2023-02-05T03:53:47;24.33;;;10.43;;
13269;SDS011;6703;51.994;7.570;2023-02-05T03:56:20;25.10;;;10.63;;
13269;SDS011;6703;51.994;7.570;2023-02-05T03:58:50;26.00;;;11.75;;
13269;SDS011;6703;51.994;7.570;2023-02-05T04:01:21;22.35;;;11.00;;
13269;SDS011;6703;51.994;7.570;2023-02-05T04:03:50;25.65;;;10.82;;
13269;SDS011;6703;51.994;7.570;2023-02-05T04:06:18;20.25;;;10.13;;
13269;SDS011;6703;51.994;7.570;2023-02-05T04:08:45;21.70;;;11.07;;
13269;SDS011;6703;51.994;7.570;2023-02-05T04:11:13;24.33;;;10.95;;
13269;SDS011;6703;51.994;7.570;2023-02-05T04:13:41;26.85;;;10.75;;
13269;SDS011;6703;51.994;7.570;2023-02-05T04:16:09;24.67;;;10.73;;
13269;SDS011;6703;51.994;7.570;2023-02-05T04:18:38;20.88;;;10.38;;
13269;SDS011;6703;51.994;7.570;2023-02-05T04:21:06;23.73;;;10.85;;
13269;SDS011;6703;51.994;7.570;2023-02-05T04:23:33;23.05;;;11.02;;
13269;SDS011;6703;51.994;7.570;2023-02-05T04:26:01;29.50;;;11.13;;
13269;SDS011;6703;51.994;7.570;2023-02-05T04:28:29;24.98;;;11.45;;
13269;SDS011;6703;51.994;7.570;2023-02-05T04:30:57;21.80;;;10.98;;
13269;SDS011;6703;51.994;7.570;2023-02-05T04:33:24;25.17;;;11.18;;
13269;SDS011;6703;51.994;7.570;2023-02-05T04:35:58;28.90;;;11.57;;
13269;SDS011;6703;51.994;7.570;2023-02-05T04:38:26;26.10;;;11.03;;
13269;SDS011;6703;51.994;7.570;2023-02-05T04:40:54;28.40;;;11.05;;
13269;SDS011;6703;51.994;7.570;2023-02-05T04:43:21;29.23;;;11.63;;
13269;SDS011;6703;51.994;7.570;2023-02-05T04:45:49;21.05;;;10.50;;
13269;SDS011;6703;51.994;7.570;2023-02-05T04:48:17;23.77;;;11.02;;
13269;SDS011;6703;51.994;7.570;2023-02-05T04:50:46;30.40;;;11.40;;
13269;SDS011;6703;51.994;7.570;2023-02-05T04:53:15;31.67;;;11.30;;
13269;SDS011;6703;51.994;7.570;2023-02-05T04:55:43;27.25;;;11.38;;
13269;SDS011;6703;51.994;7.570;2023-02-05T04:58:11;26.75;;;11.77;;
13269;SDS011;6703;51.994;7.570;2023-02-05T05:00:38;33.05;;;11.82;;
13269;SDS011;6703;51.994;7.570;2023-02-05T05:03:06;24.83;;;11.40;;
13269;SDS011;6703;51.994;7.570;2023-02-05T05:05:34;24.50;;;11.55;;
13269;SDS011;6703;51.994;7.570;2023-02-05T05:08:02;29.23;;;11.80;;
13269;SDS011;6703;51.994;7.570;2023-02-05T05:10:31;29.40;;;12.03;;
13269;SDS011;6703;51.994;7.570;2023-02-05T05:12:59;34.72;;;12.75;;
13269;SDS011;6703;51.994;7.570;2023-02-05T05:15:26;37.22;;;12.38;;
13269;SDS011;6703;51.994;7.570;2023-02-05T05:17:54;33.73;;;12.00;;
13269;SDS011;6703;51.994;7.570;2023-02-05T05:20:22;31.15;;;12.25;;
13269;SDS011;6703;51.994;7.570;2023-02-05T05:22:50;31.75;;;12.82;;
13269;SDS011;6703;51.994;7.570;2023-02-05T05:25:17;37.83;;;12.35;;
13269;SDS011;6703;51.994;7.570;2023-02-05T05:27:46;30.17;;;12.27;;
13269;SDS011;6703;51.994;7.570;2023-02-05T05:30:14;37.22;;;12.63;;
13269;SDS011;6703;51.994;7.570;2023-02-05T05:32:42;27.92;;;11.88;;
13269;SDS011;6703;51.994;7.570;2023-02-05T05:35:10;30.65;;;12.40;;
13269;SDS011;6703;51.994;7.570;2023-02-05T05:37:38;33.53;;;12.38;;
13269;SDS011;6703;51.994;7.570;2023-02-05T05:40:06;37.60;;;12.57;;
13269;SDS011;6703;51.994;7.570;2023-02-05T05:42:58;29.92;;;12.13;;
13269;SDS011;6703;51.994;7.570;2023-02-05T05:45:43;30.25;;;12.23;;
13269;SDS011;6703;51.994;7.570;2023-02-05T05:48:11;30.10;;;12.23;;
13269;SDS011;6703;51.994;7.570;2023-02-05T05:50:39;34.25;;;12.98;;
13269;SDS011;6703;51.994;7.570;2023-02-05T05:53:07;40.13;;;12.68;;
13269;SDS011;6703;51.994;7.570;2023-02-05T05:55:34;33.03;;;13.35;;
13269;SDS011;6703;51.994;7.570;2023-02-05T05:58:03;43.58;;;12.80;;
13269;SDS011;6703;51.994;7.570;2023-02-05T06:00:32;40.67;;;13.00;;
13269;SDS011;6703;51.994;7.570;2023-02-05T06:03:00;46.53;;;14.07;;
13269;SDS011;6703;51.994;7.570;2023-02-05T06:05:27;37.50;;;13.80;;
13269;SDS011;6703;51.994;7.570;2023-02-05T06:07:55;36.03;;;12.80;;
13269;SDS011;6703;51.994;7.570;2023-02-05T06:10:23;37.90;;;14.00;;
13269;SDS011;6703;51.994;7.570;2023-02-05T06:12:51;49.78;;;14.02;;
13269;SDS011;6703;51.994;7.570;2023-02-05T06:15:21;46.42;;;13.68;;
13269;SDS011;6703;51.994;7.570;2023-02-05T06:17:49;40.67;;;13.65;;
13269;SDS011;6703;51.994;7.570;2023-02-05T06:20:17;46.53;;;14.33;;
13269;SDS011;6703;51.994;7.570;2023-02-05T06:22:45;43.00;;;13.85;;
13269;SDS011;6703;51.994;7.570;2023-02-05T06:25:13;39.42;;;13.70;;
13269;SDS011;6703;51.994;7.570;2023-02-05T06:27:42;32.45;;;13.05;;
13269;SDS011;6703;51.994;7.570;2023-02-05T06:30:10;46.38;;;13.00;;
13269;SDS011;6703;51.994;7.570;2023-02-05T06:32:40;48.72;;;13.43;;
13269;SDS011;6703;51.994;7.570;2023-02-05T06:35:07;46.28;;;13.50;;
13269;SDS011;6703;51.994;7.570;2023-02-05T06:37:35;37.23;;;13.63;;
13269;SDS011;6703;51.994;7.570;2023-02-05T06:40:12;41.67;;;13.23;;
13269;SDS011;6703;51.994;7.570;2023-02-05T06:42:43;50.40;;;14.17;;
13269;SDS011;6703;51.994;7.570;2023-02-05T06:45:10;52.50;;;14.05;;
13269;SDS011;6703;51.994;7.570;2023-02-05T06:47:40;44.05;;;13.60;;
13269;SDS011;6703;51.994;7.570;2023-02-05T06:50:07;42.90;;;12.37;;
13269;SDS011;6703;51.994;7.570;2023-02-05T06:52:35;45.05;;;12.45;;
13269;SDS011;6703;51.994;7.570;2023-02-05T06:55:03;39.72;;;13.05;;
13269;SDS011;6703;51.994;7.570;2023-02-05T06:57:32;45.47;;;11.70;;
13269;SDS011;6703;51.994;7.570;2023-02-05T06:59:59;43.88;;;12.93;;
13269;SDS011;6703;51.994;7.570;2023-02-05T07:02:27;41.53;;;12.77;;
13269;SDS011;6703;51.994;7.570;2023-02-05T07:04:56;55.20;;;14.55;;
13269;SDS011;6703;51.994;7.570;2023-02-05T07:07:24;40.92;;;13.05;;
13269;SDS011;6703;51.994;7.570;2023-02-05T07:09:52;57.38;;;13.18;;
13269;SDS011;6703;51.994;7.570;2023-02-05T07:12:19;44.83;;;12.60;;
13269;SDS011;6703;51.994;7.570;2023-02-05T07:14:47;64.30;;;14.05;;
13269;SDS011;6703;51.994;7.570;2023-02-05T07:17:15;50.70;;;13.38;;
13269;SDS011;6703;51.994;7.570;2023-02-05T07:19:43;49.10;;;14.52;;
13269;SDS011;6703;51.994;7.570;2023-02-05T07:22:13;52.00;;;14.25;;
13269;SDS011;6703;51.994;7.570;2023-02-05T07:24:41;63.17;;;14.27;;
13269;SDS011;6703;51.994;7.570;2023-02-05T07:27:09;59.03;;;13.77;;
13269;SDS011;6703;51.994;7.570;2023-02-05T07:29:36;62.60;;;14.32;;
13269;SDS011;6703;51.994;7.570;2023-02-05T07:32:04;54.25;;;14.57;;
13269;SDS011;6703;51.994;7.570;2023-02-05T07:34:32;57.38;;;16.00;;
13269;SDS011;6703;51.994;7.570;2023-02-05T07:36:59;45.17;;;14.80;;
13269;SDS011;6703;51.994;7.570;2023-02-05T07:39:29;60.35;;;15.68;;
13269;SDS011;6703;51.994;7.570;2023-02-05T07:41:58;37.72;;;14.45;;
13269;SDS011;6703;51.994;7.570;2023-02-05T07:44:26;43.05;;;13.70;;
13269;SDS011;6703;51.994;7.570;2023-02-05T07:46:54;41.45;;;13.23;;
13269;SDS011;6703;51.994;7.570;2023-02-05T07:49:22;37.80;;;12.93;;
13269;SDS011;6703;51.994;7.570;2023-02-05T07:51:50;38.58;;;12.73;;
13269;SDS011;6703;51.994;7.570;2023-02-05T07:54:18;41.03;;;11.93;;
13269;SDS011;6703;51.994;7.570;2023-02-05T07:56:47;26.20;;;8.18;;
13269;SDS011;6703;51.994;7.570;2023-02-05T07:59:14;24.73;;;9.07;;
13269;SDS011;6703;51.994;7.570;2023-02-05T08:01:42;19.33;;;7.17;;
13269;SDS011;6703;51.994;7.570;2023-02-05T08:04:10;23.30;;;7.65;;
13269;SDS011;6703;51.994;7.570;2023-02-05T08:06:38;23.58;;;7.47;;
13269;SDS011;6703;51.994;7.570;2023-02-05T08:09:06;20.42;;;7.13;;
13269;SDS011;6703;51.994;7.570;2023-02-05T08:11:33;16.13;;;5.68;;
13269;SDS011;6703;51.994;7.570;2023-02-05T08:14:02;20.27;;;6.15;;
13269;SDS011;6703;51.994;7.570;2023-02-05T08:16:30;13.45;;;5.30;;
13269;SDS011;6703;51.994;7.570;2023-02-05T08:18:58;18.88;;;4.90;;
13269;SDS011;6703;51.994;7.570;2023-02-05T08:21:26;19.85;;;6.22;;
13269;SDS011;6703;51.994;7.570;2023-02-05T08:23:53;15.10;;;5.05;;
13269;SDS011;6703;51.994;7.570;2023-02-05T08:26:22;12.63;;;3.83;;
13269;SDS011;6703;51.994;7.570;2023-02-05T08:28:50;9.57;;;4.03;;
13269;SDS011;6703;51.994;7.570;2023-02-05T08:31:19;7.97;;;3.58;;
13269;SDS011;6703;51.994;7.570;2023-02-05T08:33:47;4.07;;;2.45;;
13269;SDS011;6703;51.994;7.570;2023-02-05T08:36:16;5.63;;;2.58;;
13269;SDS011;6703;51.994;7.570;2023-02-05T08:38:43;3.00;;;1.23;;
13269;SDS011;6703;51.994;7.570;2023-02-05T08:41:11;3.90;;;0.60;;
13269;SDS011;6703;51.994;7.570;2023-02-05T08:43:39;0.10;;;0.10;;
13269;SDS011;6703;51.994;7.570;2023-02-05T08:46:08;1.00;;;0.80;;
13269;SDS011;6703;51.994;7.570;2023-02-05T08:48:37;0.20;;;0.20;;
13269;SDS011;6703;51.994;7.570;2023-02-05T08:51:07;0.10;;;0.10;;
13269;SDS011;6703;51.994;7.570;2023-02-05T08:53:35;0.30;;;0.30;;
13269;SDS011;6703;51.994;7.570;2023-02-05T08:56:03;1.50;;;0.60;;
13269;SDS011;6703;51.994;7.570;2023-02-05T08:58:31;0.10;;;0.10;;
13269;SDS011;6703;51.994;7.570;2023-02-05T09:00:59;0.70;;;0.70;;
13269;SDS011;6703;51.994;7.570;2023-02-05T09:03:28;0.00;;;0.00;;
13269;SDS011;6703;51.994;7.570;2023-02-05T09:05:58;0.00;;;0.00;;
13269;SDS011;6703;51.994;7.570;2023-02-05T09:08:30;0.10;;;0.10;;
13269;SDS011;6703;51.994;7.570;2023-02-05T09:10:58;0.40;;;0.20;;
13269;SDS011;6703;51.994;7.570;2023-02-05T09:13:26;0.00;;;0.00;;
13269;SDS011;6703;51.994;7.570;2023-02-05T09:15:53;0.30;;;0.30;;
13269;SDS011;6703;51.994;7.570;2023-02-05T09:18:21;0.00;;;0.00;;
13269;SDS011;6703;51.994;7.570;2023-02-05T09:20:49;0.03;;;0.03;;
13269;SDS011;6703;51.994;7.570;2023-02-05T09:23:20;0.00;;;0.00;;
13269;SDS011;6703;51.994;7.570;2023-02-05T09:25:48;0.00;;;0.00;;
13269;SDS011;6703;51.994;7.570;2023-02-05T09:28:16;0.00;;;0.00;;
13269;SDS011;6703;51.994;7.570;2023-02-05T09:30:44;0.15;;;0.15;;
13269;SDS011;6703;51.994;7.570;2023-02-05T09:33:12;0.00;;;0.00;;
13269;SDS011;6703;51.994;7.570;2023-02-05T09:35:40;0.00;;;0.00;;
13269;SDS011;6703;51.994;7.570;2023-02-05T09:38:09;0.00;;;0.00;;
13269;SDS011;6703;51.994;7.570;2023-02-05T09:40:52;0.50;;;0.50;;
13269;SDS011;6703;51.994;7.570;2023-02-05T09:43:25;0.00;;;0.00;;
13269;SDS011;6703;51.994;7.570;2023-02-05T09:45:59;0.00;;;0.00;;
13269;SDS011;6703;51.994;7.570;2023-02-05T09:48:37;0.00;;;0.00;;
13269;SDS011;6703;51.994;7.570;2023-02-05T09:51:15;0.00;;;0.00;;
13269;SDS011;6703;51.994;7.570;2023-02-05T09:53:46;0.00;;;0.00;;
13269;SDS011;6703;51.994;7.570;2023-02-05T09:56:16;0.10;;;0.10;;
13269;SDS011;6703;51.994;7.570;2023-02-05T09:58:45;0.00;;;0.00;;
13269;SDS011;6703;51.994;7.570;2023-02-05T10:01:16;0.00;;;0.00;;
13269;SDS011;6703;51.994;7.570;2023-02-05T10:03:49;0.00;;;0.00;;
13269;SDS011;6703;51.994;7.570;2023-02-05T10:06:25;0.00;;;0.00;;
13269;SDS011;6703;51.994;7.570;2023-02-05T10:09:00;0.00;;;0.00;;
13269;SDS011;6703;51.994;7.570;2023-02-05T10:11:36;0.00;;;0.00;;
13269;SDS011;6703;51.994;7.570;2023-02-05T10:14:08;0.00;;;0.00;;
13269;SDS011;6703;51.994;7.570;2023-02-05T10:16:45;0.00;;;0.00;;
13269;SDS011;6703;51.994;7.570;2023-02-05T10:19:26;0.10;;;0.10;;
13269;SDS011;6703;51.994;7.570;2023-02-05T10:22:06;0.50;;;0.30;;
13269;SDS011;6703;51.994;7.570;2023-02-05T10:24:45;0.00;;;0.00;;
13269;SDS011;6703;51.994;7.570;2023-02-05T10:27:40;0.00;;;0.00;;
13269;SDS011;6703;51.994;7.570;2023-02-05T10:30:14;0.00;;;0.00;;
13269;SDS011;6703;51.994;7.570;2023-02-05T10:32:47;0.00;;;0.00;;
13269;SDS011;6703;51.994;7.570;2023-02-05T10:35:22;0.00;;;0.00;;
13269;SDS011;6703;51.994;7.570;2023-02-05T10:37:52;1.80;;;1.00;;
13269;SDS011;6703;51.994;7.570;2023-02-05T10:40:24;1.10;;;0.40;;
13269;SDS011;6703;51.994;7.570;2023-02-05T10:42:59;0.00;;;0.00;;
13269;SDS011;6703;51.994;7.570;2023-02-05T10:45:29;0.10;;;0.10;;
13269;SDS011;6703;51.994;7.570;2023-02-05T10:48:00;0.00;;;0.00;;
13269;SDS011;6703;51.994;7.570;2023-02-05T10:50:37;0.00;;;0.00;;
13269;SDS011;6703;51.994;7.570;2023-02-05T10:53:12;0.00;;;0.00;;
13269;SDS011;6703;51.994;7.570;2023-02-05T10:55:43;0.00;;;0.00;;
13269;SDS011;6703;51.994;7.570;2023-02-05T10:58:20;0.00;;;0.00;;
13269;SDS011;6703;51.994;7.570;2023-02-05T11:00:53;0.20;;;0.20;;
13269;SDS011;6703;51.994;7.570;2023-02-05T11:03:21;0.20;;;0.20;;
13269;SDS011;6703;51.994;7.570;2023-02-05T11:05:49;0.40;;;0.30;;
13269;SDS011;6703;51.994;7.570;2023-02-05T11:08:29;0.00;;;0.00;;
13269;SDS011;6703;51.994;7.570;2023-02-05T11:10:58;0.00;;;0.00;;
13269;SDS011;6703;51.994;7.570;2023-02-05T11:13:28;0.00;;;0.00;;
13269;SDS011;6703;51.994;7.570;2023-02-05T11:15:56;0.90;;;0.50;;
13269;SDS011;6703;51.994;7.570;2023-02-05T11:18:26;0.47;;;0.47;;
13269;SDS011;6703;51.994;7.570;2023-02-05T11:20:56;0.00;;;0.00;;
13269;SDS011;6703;51.994;7.570;2023-02-05T11:23:26;0.15;;;0.15;;
13269;SDS011;6703;51.994;7.570;2023-02-05T11:25:56;0.08;;;0.08;;
13269;SDS011;6703;51.994;7.570;2023-02-05T11:28:26;0.10;;;0.10;;
13269;SDS011;6703;51.994;7.570;2023-02-05T11:30:55;0.50;;;0.30;;
13269;SDS011;6703;51.994;7.570;2023-02-05T11:33:28;1.98;;;0.95;;
13269;SDS011;6703;51.994;7.570;2023-02-05T11:35:58;0.00;;;0.00;;
13269;SDS011;6703;51.994;7.570;2023-02-05T11:38:32;0.20;;;0.10;;
13269;SDS011;6703;51.994;7.570;2023-02-05T11:41:05;0.00;;;0.00;;
13269;SDS011;6703;51.994;7.570;2023-02-05T11:43:36;0.80;;;0.50;;
13269;SDS011;6703;51.994;7.570;2023-02-05T11:46:05;0.00;;;0.00;;
13269;SDS011;6703;51.994;7.570;2023-02-05T11:48:36;0.00;;;0.00;;
13269;SDS011;6703;51.994;7.570;2023-02-05T11:53:56;0.05;;;0.05;;
13269;SDS011;6703;51.994;7.570;2023-02-05T11:56:25;0.00;;;0.00;;
13269;SDS011;6703;51.994;7.570;2023-02-05T11:59:00;0.50;;;0.50;;
13269;SDS011;6703;51.994;7.570;2023-02-05T12:01:29;0.00;;;0.00;;
13269;SDS011;6703;51.994;7.570;2023-02-05T12:04:00;0.08;;;0.08;;
13269;SDS011;6703;51.994;7.570;2023-02-05T12:06:41;0.00;;;0.00;;
13269;SDS011;6703;51.994;7.570;2023-02-05T12:09:13;0.00;;;0.00;;
13269;SDS011;6703;51.994;7.570;2023-02-05T12:11:46;0.28;;;0.28;;
13269;SDS011;6703;51.994;7.570;2023-02-05T12:14:45;0.40;;;0.30;;
13269;SDS011;6703;51.994;7.570;2023-02-05T12:17:20;0.10;;;0.10;;
13269;SDS011;6703;51.994;7.570;2023-02-05T12:19:55;0.03;;;0.03;;
13269;SDS011;6703;51.994;7.570;2023-02-05T12:22:28;0.45;;;0.45;;
13269;SDS011;6703;51.994;7.570;2023-02-05T12:28:11;0.30;;;0.30;;
13269;SDS011;6703;51.994;7.570;2023-02-05T12:30:52;0.30;;;0.20;;
13269;SDS011;6703;51.994;7.570;2023-02-05T12:33:29;0.00;;;0.00;;
13269;SDS011;6703;51.994;7.570;2023-02-05T12:36:07;0.10;;;0.10;;
13269;SDS011;6703;51.994;7.570;2023-02-05T12:38:46;0.30;;;0.30;;
13269;SDS011;6703;51.994;7.570;2023-02-05T12:41:21;0.70;;;0.70;;
13269;SDS011;6703;51.994;7.570;2023-02-05T12:43:56;0.80;;;0.60;;
13269;SDS011;6703;51.994;7.570;2023-02-05T12:46:37;0.10;;;0.10;;
13269;SDS011;6703;51.994;7.570;2023-02-05T12:49:12;0.20;;;0.20;;
13269;SDS011;6703;51.994;7.570;2023-02-05T12:51:51;0.90;;;0.90;;
13269;SDS011;6703;51.994;7.570;2023-02-05T12:54:29;0.10;;;0.10;;
13269;SDS011;6703;51.994;7.570;2023-02-05T12:57:15;0.05;;;0.05;;
13269;SDS011;6703;51.994;7.570;2023-02-05T12:59:46;0.20;;;0.20;;
13269;SDS011;6703;51.994;7.570;2023-02-05T13:02:21;0.00;;;0.00;;
13269;SDS011;6703;51.994;7.570;2023-02-05T13:04:53;0.93;;;0.52;;
13269;SDS011;6703;51.994;7.570;2023-02-05T13:07:28;1.60;;;0.35;;
13269;SDS011;6703;51.994;7.570;2023-02-05T13:09:58;0.17;;;0.17;;
13269;SDS011;6703;51.994;7.570;2023-02-05T13:12:28;2.10;;;1.20;;
13269;SDS011;6703;51.994;7.570;2023-02-05T13:15:01;0.20;;;0.20;;
13269;SDS011;6703;51.994;7.570;2023-02-05T13:17:39;0.10;;;0.10;;
13269;SDS011;6703;51.994;7.570;2023-02-05T13:20:15;0.50;;;0.50;;
13269;SDS011;6703;51.994;7.570;2023-02-05T13:22:49;3.10;;;0.80;;
13269;SDS011;6703;51.994;7.570;2023-02-05T13:25:37;0.33;;;0.20;;
13269;SDS011;6703;51.994;7.570;2023-02-05T13:28:27;0.00;;;0.00;;
13269;SDS011;6703;51.994;7.570;2023-02-05T13:31:11;0.30;;;0.30;;
13269;SDS011;6703;51.994;7.570;2023-02-05T13:33:43;0.10;;;0.10;;
13269;SDS011;6703;51.994;7.570;2023-02-05T13:36:18;0.10;;;0.10;;
13269;SDS011;6703;51.994;7.570;2023-02-05T13:39:01;0.90;;;0.50;;
13269;SDS011;6703;51.994;7.570;2023-02-05T13:41:47;0.20;;;0.20;;
13269;SDS011;6703;51.994;7.570;2023-02-05T13:44:35;0.68;;;0.20;;
13269;SDS011;6703;51.994;7.570;2023-02-05T13:47:22;0.10;;;0.10;;
13269;SDS011;6703;51.994;7.570;2023-02-05T13:50:26;0.00;;;0.00;;
13269;SDS011;6703;51.994;7.570;2023-02-05T13:53:13;0.00;;;0.00;;
13269;SDS011;6703;51.994;7.570;2023-02-05T13:55:56;0.10;;;0.10;;
13269;SDS011;6703;51.994;7.570;2023-02-05T13:58:31;0.82;;;0.32;;
13269;SDS011;6703;51.994;7.570;2023-02-05T14:01:01;0.22;;;0.22;;
13269;SDS011;6703;51.994;7.570;2023-02-05T14:03:31;0.40;;;0.40;;
13269;SDS011;6703;51.994;7.570;2023-02-05T14:06:16;0.90;;;0.60;;
13269;SDS011;6703;51.994;7.570;2023-02-05T14:08:48;0.90;;;0.70;;
13269;SDS011;6703;51.994;7.570;2023-02-05T14:11:17;1.23;;;0.50;;
13269;SDS011;6703;51.994;7.570;2023-02-05T14:16:45;9.53;;;1.93;;
13269;SDS011;6703;51.994;7.570;2023-02-05T14:19:17;4.43;;;1.52;;
13269;SDS011;6703;51.994;7.570;2023-02-05T14:21:58;7.28;;;2.05;;
13269;SDS011;6703;51.994;7.570;2023-02-05T14:24:37;22.52;;;3.63;;
13269;SDS011;6703;51.994;7.570;2023-02-05T14:30:33;28.08;;;3.70;;
13269;SDS011;6703;51.994;7.570;2023-02-05T14:33:29;18.98;;;3.13;;
13269;SDS011;6703;51.994;7.570;2023-02-05T14:39:04;23.00;;;3.17;;
13269;SDS011;6703;51.994;7.570;2023-02-05T14:41:42;19.23;;;2.50;;
13269;SDS011;6703;51.994;7.570;2023-02-05T14:44:18;16.60;;;2.63;;
13269;SDS011;6703;51.994;7.570;2023-02-05T14:46:54;16.67;;;3.13;;
13269;SDS011;6703;51.994;7.570;2023-02-05T14:49:25;13.60;;;2.28;;
13269;SDS011;6703;51.994;7.570;2023-02-05T14:51:55;22.30;;;2.42;;
13269;SDS011;6703;51.994;7.570;2023-02-05T14:54:27;11.55;;;1.70;;
13269;SDS011;6703;51.994;7.570;2023-02-05T14:57:07;17.80;;;2.17;;
13269;SDS011;6703;51.994;7.570;2023-02-05T14:59:38;17.63;;;2.00;;
13269;SDS011;6703;51.994;7.570;2023-02-05T15:05:13;19.17;;;2.35;;
13269;SDS011;6703;51.994;7.570;2023-02-05T15:07:43;15.15;;;2.22;;
13269;SDS011;6703;51.994;7.570;2023-02-05T15:10:14;22.38;;;2.50;;
13269;SDS011;6703;51.994;7.570;2023-02-05T15:12:54;13.88;;;2.10;;
13269;SDS011;6703;51.994;7.570;2023-02-05T15:15:29;20.95;;;2.42;;
13269;SDS011;6703;51.994;7.570;2023-02-05T15:18:04;22.35;;;2.72;;
13269;SDS011;6703;51.994;7.570;2023-02-05T15:20:37;22.50;;;2.90;;
13269;SDS011;6703;51.994;7.570;2023-02-05T15:23:13;18.08;;;2.65;;
13269;SDS011;6703;51.994;7.570;2023-02-05T15:25:49;23.98;;;2.83;;
13269;SDS011;6703;51.994;7.570;2023-02-05T15:28:22;21.98;;;2.65;;
13269;SDS011;6703;51.994;7.570;2023-02-05T15:30:56;21.70;;;2.40;;